createdAt,value
2019-04-03T00:01:08.307Z,24.87
2019-04-03T00:03:34.687Z,25.33
2019-04-03T00:06:00.952Z,28.37
2019-04-03T00:08:27.196Z,27.50
2019-04-03T00:10:53.575Z,23.63
2019-04-03T00:13:19.844Z,25.00
2019-04-03T00:15:47.037Z,28.97
2019-04-03T00:18:15.679Z,24.30
2019-04-03T00:20:41.503Z,30.37
2019-04-03T00:23:07.778Z,30.27
2019-04-03T00:25:34.119Z,25.73
2019-04-03T00:28:00.401Z,26.00
2019-04-03T00:30:26.823Z,25.83
2019-04-03T00:32:53.894Z,25.73
2019-04-03T00:35:21.579Z,24.70
2019-04-03T00:37:48.457Z,27.37
2019-04-03T00:40:14.745Z,25.13
2019-04-03T00:42:40.992Z,25.60
2019-04-03T00:45:07.319Z,26.30
2019-04-03T00:47:33.638Z,23.90
2019-04-03T00:49:59.883Z,28.07
2019-04-03T00:52:27.588Z,21.27
2019-04-03T00:54:56.126Z,30.60
2019-04-03T00:57:22.484Z,24.57
2019-04-03T00:59:48.733Z,26.40
2019-04-03T01:02:16.427Z,23.43
2019-04-03T01:04:42.946Z,23.10
2019-04-03T01:07:09.196Z,26.80
2019-04-03T01:09:35.489Z,26.60
2019-04-03T01:12:01.877Z,24.27
2019-04-03T01:14:28.205Z,25.17
2019-04-03T01:16:54.456Z,24.60
2019-04-03T01:19:21.077Z,26.30
2019-04-03T01:21:47.349Z,28.33
2019-04-03T01:24:13.592Z,27.63
2019-04-03T01:26:40.741Z,29.83
2019-04-03T01:29:07.522Z,29.10
2019-04-03T01:31:33.838Z,27.90
2019-04-03T01:34:00.136Z,23.60
2019-04-03T01:36:26.411Z,27.87
2019-04-03T01:38:52.741Z,24.73
2019-04-03T01:41:21.268Z,24.77
2019-04-03T01:43:54.319Z,27.43
2019-04-03T01:46:20.666Z,28.53
2019-04-03T01:48:47.037Z,28.77
2019-04-03T01:51:13.322Z,26.10
2019-04-03T01:53:39.694Z,31.70
2019-04-03T01:56:05.999Z,30.13
2019-04-03T01:58:32.263Z,30.77
2019-04-03T02:00:58.542Z,24.53
2019-04-03T02:03:24.782Z,28.60
2019-04-03T02:05:51.058Z,27.20
2019-04-03T02:08:17.347Z,26.40
2019-04-03T02:10:43.596Z,24.20
2019-04-03T02:13:09.870Z,27.50
2019-04-03T02:15:36.191Z,25.60
2019-04-03T02:18:02.469Z,27.57
2019-04-03T02:20:28.761Z,26.40
2019-04-03T02:22:55.057Z,29.93
2019-04-03T02:25:21.307Z,26.47
2019-04-03T02:27:47.547Z,30.37
2019-04-03T02:30:14.508Z,26.73
2019-04-03T02:32:40.749Z,27.63
2019-04-03T02:35:08.231Z,29.00
2019-04-03T02:37:49.648Z,30.13
2019-04-03T02:40:16.160Z,25.80
2019-04-03T02:42:42.754Z,25.90
2019-04-03T02:45:09.044Z,27.93
2019-04-03T02:47:35.315Z,27.93
2019-04-03T02:50:01.926Z,27.10
2019-04-03T02:52:28.174Z,28.47
2019-04-03T02:54:54.805Z,28.80
2019-04-03T02:57:21.588Z,29.17
2019-04-03T02:59:47.865Z,30.23
2019-04-03T03:02:14.610Z,29.07
2019-04-03T03:04:40.981Z,31.47
2019-04-03T03:07:10.075Z,33.30
2019-04-03T03:09:36.373Z,27.93
2019-04-03T03:12:02.608Z,27.57
2019-04-03T03:14:28.861Z,27.87
2019-04-03T03:17:00.216Z,28.70
2019-04-03T03:19:26.495Z,30.47
2019-04-03T03:21:58.628Z,30.83
2019-04-03T03:24:29.565Z,31.17
2019-04-03T03:26:57.603Z,28.70
2019-04-03T03:29:26.357Z,35.10
2019-04-03T03:32:11.443Z,37.97
2019-04-03T03:34:46.346Z,31.30
2019-04-03T03:36:49.906Z,31.27
2019-04-03T03:39:16.841Z,31.93
2019-04-03T03:41:43.240Z,34.20
2019-04-03T03:44:11.170Z,36.03
2019-04-03T03:46:37.921Z,28.63
2019-04-03T03:49:04.330Z,36.37
2019-04-03T03:51:31.662Z,34.00
2019-04-03T03:53:58.685Z,31.10
2019-04-03T03:56:25.285Z,45.33
2019-04-03T03:58:52.077Z,33.57
2019-04-03T04:01:19.258Z,38.03
2019-04-03T04:03:45.847Z,37.40
2019-04-03T04:06:12.598Z,37.57
2019-04-03T04:08:42.637Z,37.53
2019-04-03T04:11:07.044Z,34.87
2019-04-03T04:13:33.482Z,35.00
2019-04-03T04:16:02.732Z,32.83
2019-04-03T04:18:27.939Z,34.70
2019-04-03T04:20:54.838Z,36.97
2019-04-03T04:23:24.236Z,32.83
2019-04-03T04:25:50.215Z,36.40
2019-04-03T04:28:17.050Z,36.53
2019-04-03T04:30:43.332Z,32.97
2019-04-03T04:33:09.575Z,33.47
2019-04-03T04:35:35.848Z,33.03
2019-04-03T04:38:02.133Z,38.33
2019-04-03T04:40:29.022Z,39.70
2019-04-03T04:42:56.687Z,38.87
2019-04-03T04:45:22.949Z,34.87
2019-04-03T04:47:49.187Z,34.37
2019-04-03T04:50:24.250Z,40.20
2019-04-03T04:52:49.617Z,31.77
2019-04-03T04:55:15.896Z,34.57
2019-04-03T04:57:42.277Z,34.87
2019-04-03T05:00:08.724Z,33.30
2019-04-03T05:02:34.960Z,36.03
2019-04-03T05:05:01.206Z,40.80
2019-04-03T05:07:28.850Z,35.17
2019-04-03T05:09:55.869Z,36.07
2019-04-03T05:12:22.111Z,39.23
2019-04-03T05:14:48.923Z,32.70
2019-04-03T05:17:16.330Z,40.93
2019-04-03T05:19:42.757Z,34.70
2019-04-03T05:22:09.340Z,41.00
2019-04-03T05:24:35.654Z,40.87
2019-04-03T05:27:03.310Z,39.40
2019-04-03T05:29:29.904Z,35.63
2019-04-03T05:31:56.177Z,35.87
2019-04-03T05:34:22.464Z,38.90
2019-04-03T05:36:49.170Z,35.03
2019-04-03T05:39:16.986Z,34.30
2019-04-03T05:41:43.415Z,35.13
2019-04-03T05:44:09.673Z,36.47
2019-04-03T05:46:37.607Z,33.67
2019-04-03T05:49:04.135Z,33.70
2019-04-03T05:51:30.424Z,35.13
2019-04-03T05:53:56.683Z,35.43
2019-04-03T05:56:22.935Z,36.27
2019-04-03T05:59:02.257Z,38.23
2019-04-03T06:01:28.555Z,35.73
2019-04-03T06:03:55.037Z,35.17
2019-04-03T06:06:21.638Z,35.67
2019-04-03T06:08:50.871Z,36.43
2019-04-03T06:11:16.155Z,34.60
2019-04-03T06:13:42.497Z,37.13
2019-04-03T06:16:08.776Z,40.00
2019-04-03T06:18:35.060Z,37.83
2019-04-03T06:21:01.438Z,35.93
2019-04-03T06:23:27.836Z,39.63
2019-04-03T06:25:54.516Z,35.47
2019-04-03T06:28:20.757Z,39.93
2019-04-03T06:30:47.291Z,45.37
2019-04-03T06:33:13.847Z,41.80
2019-04-03T06:35:40.211Z,37.97
2019-04-03T06:38:06.889Z,38.23
2019-04-03T06:40:35.166Z,40.40
2019-04-03T06:43:01.384Z,45.73
2019-04-03T06:45:27.767Z,35.80
2019-04-03T06:47:54.058Z,43.03
2019-04-03T06:50:20.319Z,36.23
2019-04-03T06:52:47.365Z,36.53
2019-04-03T06:55:13.757Z,36.43
2019-04-03T06:58:13.947Z,34.23
2019-04-03T07:00:40.604Z,33.17
2019-04-03T07:03:06.891Z,37.30
2019-04-03T07:05:33.163Z,33.53
2019-04-03T07:08:00.716Z,37.27
2019-04-03T07:10:27.379Z,41.63
2019-04-03T07:12:53.629Z,33.87
2019-04-03T07:15:19.942Z,37.33
2019-04-03T07:17:46.187Z,31.73
2019-04-03T07:20:15.642Z,37.67
2019-04-03T07:22:40.862Z,37.23
2019-04-03T07:25:07.115Z,37.50
2019-04-03T07:27:36.489Z,36.90
2019-04-03T07:30:06.032Z,37.07
2019-04-03T07:32:33.602Z,42.57
2019-04-03T07:35:00.066Z,36.53
2019-04-03T07:37:26.287Z,37.50
2019-04-03T07:39:52.607Z,45.87
2019-04-03T07:42:18.849Z,34.90
2019-04-03T07:44:45.423Z,34.47
2019-04-03T07:47:11.955Z,33.83
2019-04-03T07:49:40.055Z,34.37
2019-04-03T07:52:06.476Z,31.13
2019-04-03T07:54:32.770Z,35.77
2019-04-03T07:56:59.027Z,32.97
2019-04-03T07:59:25.278Z,34.00
2019-04-03T08:01:51.532Z,35.63
2019-04-03T08:04:18.017Z,39.10
2019-04-03T08:06:44.376Z,38.70
2019-04-03T08:09:11.129Z,34.50
2019-04-03T08:11:37.847Z,37.60
2019-04-03T08:14:04.126Z,35.77
2019-04-03T08:16:30.628Z,31.73
2019-04-03T08:19:20.903Z,36.13
2019-04-03T08:21:47.620Z,36.13
2019-04-03T08:24:13.993Z,34.57
2019-04-03T08:26:40.347Z,39.60
2019-04-03T08:29:06.919Z,35.07
2019-04-03T08:31:33.148Z,34.80
2019-04-03T08:34:00.029Z,37.37
2019-04-03T08:36:27.129Z,33.50
2019-04-03T08:38:53.448Z,38.77
2019-04-03T08:41:19.912Z,34.10
2019-04-03T08:43:46.217Z,32.80
2019-04-03T08:46:12.467Z,32.97
2019-04-03T08:48:38.720Z,37.00
2019-04-03T08:51:04.981Z,32.33
2019-04-03T08:53:31.384Z,31.70
2019-04-03T08:55:58.075Z,32.67
2019-04-03T08:58:25.938Z,29.33
2019-04-03T09:00:52.621Z,33.93
2019-04-03T09:03:18.895Z,31.27
2019-04-03T09:05:45.366Z,32.40
2019-04-03T09:08:11.635Z,31.50
2019-04-03T09:10:37.877Z,33.93
2019-04-03T09:13:16.040Z,31.70
2019-04-03T09:15:32.519Z,33.33
2019-04-03T09:17:58.763Z,34.30
2019-04-03T09:20:25.041Z,32.43
2019-04-03T09:22:53.721Z,29.10
2019-04-03T09:25:19.736Z,37.43
2019-04-03T09:27:45.976Z,33.57
2019-04-03T09:30:15.855Z,33.40
2019-04-03T09:32:40.397Z,32.43
2019-04-03T09:35:07.124Z,29.97
2019-04-03T09:37:37.174Z,33.90
2019-04-03T09:40:01.609Z,29.93
2019-04-03T09:42:27.861Z,32.40
2019-04-03T09:44:56.254Z,25.43
2019-04-03T09:47:22.300Z,27.63
2019-04-03T09:49:48.568Z,32.80
2019-04-03T09:52:15.170Z,30.30
2019-04-03T09:54:41.587Z,29.67
2019-04-03T09:57:08.600Z,24.17
2019-04-03T09:59:37.321Z,27.20
2019-04-03T10:02:03.523Z,28.40
2019-04-03T10:04:29.781Z,30.80
2019-04-03T10:06:56.372Z,29.03
2019-04-03T10:09:22.654Z,25.47
2019-04-03T10:11:51.490Z,28.80
2019-04-03T10:14:17.461Z,30.10
2019-04-03T10:16:43.970Z,25.43
2019-04-03T10:19:12.445Z,30.00
2019-04-03T10:21:38.680Z,24.00
2019-04-03T10:24:13.933Z,26.60
2019-04-03T10:26:40.921Z,29.53
2019-04-03T10:29:07.553Z,21.67
2019-04-03T10:31:33.949Z,27.27
2019-04-03T10:34:00.946Z,23.73
2019-04-03T10:36:28.603Z,27.57
2019-04-03T10:38:54.862Z,23.13
2019-04-03T10:41:21.114Z,27.70
2019-04-03T10:43:47.658Z,27.90
2019-04-03T10:46:14.246Z,22.77
2019-04-03T10:48:40.700Z,24.13
2019-04-03T10:51:09.289Z,23.10
2019-04-03T10:53:35.530Z,23.60
2019-04-03T10:56:01.866Z,25.50
2019-04-03T10:58:28.360Z,23.33
2019-04-03T11:00:54.718Z,26.70
2019-04-03T11:03:21.708Z,25.93
2019-04-03T11:05:48.051Z,24.00
2019-04-03T11:08:14.295Z,30.03
2019-04-03T11:10:40.644Z,28.17
2019-04-03T11:13:06.894Z,34.57
2019-04-03T11:15:33.235Z,23.57
2019-04-03T11:17:59.542Z,27.63
2019-04-03T11:20:26.185Z,26.67
2019-04-03T11:25:20.866Z,28.40
2019-04-03T11:27:47.426Z,25.40
2019-04-03T11:30:18.940Z,23.93
2019-04-03T11:30:53.735Z,28.27
2019-04-03T11:32:43.793Z,26.17
2019-04-03T11:35:10.581Z,28.83
2019-04-03T11:37:37.209Z,26.50
2019-04-03T11:40:05.803Z,31.97
2019-04-03T11:42:32.220Z,24.60
2019-04-03T11:44:58.768Z,25.70
2019-04-03T11:47:25.132Z,27.23
2019-04-03T11:49:52.513Z,26.30
2019-04-03T11:52:19.804Z,28.40
2019-04-03T11:54:46.080Z,24.43
2019-04-03T11:57:14.009Z,29.33
2019-04-03T11:59:40.729Z,28.47
2019-04-03T12:02:07.879Z,26.80
2019-04-03T12:04:34.883Z,26.33
2019-04-03T12:07:01.221Z,30.57
2019-04-03T12:09:27.540Z,28.77
2019-04-03T12:11:55.377Z,27.27
2019-04-03T12:14:21.857Z,29.03
2019-04-03T12:16:49.285Z,27.43
2019-04-03T12:19:15.920Z,27.90
2019-04-03T12:21:42.341Z,26.27
2019-04-03T12:24:08.610Z,26.33
2019-04-03T12:26:34.871Z,26.07
2019-04-03T12:29:08.344Z,30.37
2019-04-03T12:31:34.707Z,30.70
2019-04-03T12:34:05.145Z,24.13
2019-04-03T12:36:29.558Z,24.40
2019-04-03T12:38:56.724Z,33.47
2019-04-03T12:41:23.620Z,31.03
2019-04-03T12:43:50.737Z,32.67
2019-04-03T12:46:19.055Z,28.53
2019-04-03T12:48:45.541Z,31.30
2019-04-03T12:51:12.166Z,32.03
2019-04-03T12:53:38.874Z,34.70
2019-04-03T12:56:06.550Z,32.23
2019-04-03T12:58:34.417Z,26.53
2019-04-03T13:01:01.417Z,22.77
2019-04-03T13:03:27.824Z,26.97
2019-04-03T13:05:54.159Z,30.33
2019-04-03T13:08:21.775Z,28.73
2019-04-03T13:10:49.112Z,30.43
2019-04-03T13:13:16.205Z,31.93
2019-04-03T13:15:42.908Z,31.47
2019-04-03T13:18:10.307Z,24.90
2019-04-03T13:20:37.506Z,28.90
2019-04-03T13:23:04.404Z,31.73
2019-04-03T13:25:30.775Z,26.37
2019-04-03T13:27:58.371Z,33.17
2019-04-03T13:30:24.960Z,27.60
2019-04-03T13:32:58.358Z,26.93
2019-04-03T13:35:19.660Z,28.40
2019-04-03T13:37:46.487Z,30.77
2019-04-03T13:40:13.545Z,30.67
2019-04-03T13:42:39.829Z,28.53
2019-04-03T13:45:06.589Z,30.30
2019-04-03T13:47:32.832Z,43.40
2019-04-03T13:50:02.028Z,27.67
2019-04-03T13:52:39.077Z,32.50
2019-04-03T13:54:58.364Z,29.87
2019-04-03T13:57:24.600Z,29.17
2019-04-03T13:59:50.880Z,30.90
2019-04-03T14:02:19.578Z,29.67
2019-04-03T14:04:48.432Z,27.17
2019-04-03T14:07:14.407Z,38.73
2019-04-03T14:09:40.730Z,34.70
2019-04-03T14:12:07.096Z,37.60
2019-04-03T14:14:33.353Z,33.33
2019-04-03T14:17:00.420Z,33.57
2019-04-03T14:19:43.126Z,28.70
2019-04-03T14:22:02.046Z,27.80
2019-04-03T14:24:39.273Z,30.30
2019-04-03T14:26:56.555Z,28.53
2019-04-03T14:29:22.764Z,25.87
2019-04-03T14:31:49.557Z,33.70
2019-04-03T14:34:16.573Z,29.67
2019-04-03T14:36:43.632Z,24.77
2019-04-03T14:39:10.117Z,30.47
2019-04-03T14:41:36.459Z,26.67
2019-04-03T14:44:03.503Z,23.60
2019-04-03T14:46:30.321Z,26.93
2019-04-03T14:48:59.615Z,24.27
2019-04-03T14:51:24.979Z,27.33
2019-04-03T14:53:52.657Z,24.17
2019-04-03T14:56:19.569Z,29.53
2019-04-03T14:58:46.056Z,29.17
2019-04-03T15:01:13.358Z,26.03
2019-04-03T15:03:40.311Z,25.43
2019-04-03T15:06:06.895Z,30.43
2019-04-03T15:08:33.671Z,24.47
2019-04-03T15:11:02.032Z,28.70
2019-04-03T15:13:28.690Z,42.13
2019-04-03T15:15:58.895Z,36.03
2019-04-03T15:18:24.693Z,30.83
2019-04-03T15:20:51.449Z,28.37
2019-04-03T15:23:18.728Z,23.73
2019-04-03T15:25:45.435Z,25.20
2019-04-03T15:28:13.306Z,23.20
2019-04-03T15:30:41.644Z,25.13
2019-04-03T15:33:07.766Z,27.43
2019-04-03T15:35:34.460Z,27.23
2019-04-03T15:38:01.020Z,24.40
2019-04-03T15:40:27.362Z,30.63
2019-04-03T15:42:54.585Z,22.70
2019-04-03T15:45:22.436Z,24.83
2019-04-03T15:47:49.648Z,25.77
2019-04-03T15:50:16.273Z,24.03
2019-04-03T15:52:44.313Z,24.47
2019-04-03T15:55:10.948Z,29.07
2019-04-03T15:57:39.771Z,25.97
2019-04-03T16:00:14.820Z,24.13
2019-04-03T16:02:44.486Z,27.33
2019-04-03T16:05:09.725Z,23.27
2019-04-03T16:07:41.514Z,25.87
2019-04-03T16:10:08.363Z,28.33
2019-04-03T16:12:35.785Z,24.13
2019-04-03T16:15:08.281Z,28.47
2019-04-03T16:17:37.627Z,23.50
2019-04-03T16:20:04.527Z,23.27
2019-04-03T16:22:32.145Z,23.50
2019-04-03T16:24:58.891Z,22.30
2019-04-03T16:27:27.692Z,22.60
2019-04-03T16:29:53.977Z,19.33
2019-04-03T16:32:20.808Z,24.03
2019-04-03T16:34:47.524Z,19.67
2019-04-03T16:37:14.024Z,25.03
2019-04-03T16:39:40.332Z,23.90
2019-04-03T16:42:06.647Z,26.07
2019-04-03T16:44:32.925Z,27.70
2019-04-03T16:46:59.377Z,20.83
2019-04-03T16:49:28.471Z,25.83
2019-04-03T16:51:54.657Z,21.63
2019-04-03T16:54:21.248Z,16.97
2019-04-03T16:56:48.850Z,23.50
2019-04-03T16:59:15.713Z,22.87
2019-04-03T17:01:44.356Z,23.50
2019-04-03T17:04:10.486Z,24.77
2019-04-03T17:06:36.833Z,19.47
2019-04-03T17:09:06.679Z,20.00
2019-04-03T17:11:33.474Z,27.40
2019-04-03T17:14:00.078Z,23.30
2019-04-03T17:16:26.376Z,19.40
2019-04-03T17:18:52.605Z,21.07
2019-04-03T17:21:18.884Z,17.97
2019-04-03T17:23:46.175Z,21.07
2019-04-03T17:26:13.465Z,24.70
2019-04-03T17:28:41.064Z,21.60
2019-04-03T17:31:07.915Z,20.40
2019-04-03T17:33:35.629Z,19.87
2019-04-03T17:36:02.740Z,21.00
2019-04-03T17:38:31.469Z,20.93
2019-04-03T17:40:57.276Z,21.40
2019-04-03T17:43:23.544Z,25.17
2019-04-03T17:45:49.781Z,25.03
2019-04-03T17:48:16.089Z,36.20
2019-04-03T17:50:42.443Z,35.50
2019-04-03T17:53:08.911Z,38.00
2019-04-03T17:55:35.151Z,37.77
2019-04-03T17:58:01.444Z,37.67
2019-04-03T18:00:27.715Z,30.60
2019-04-03T18:02:53.958Z,34.47
2019-04-03T18:05:20.252Z,33.37
2019-04-03T18:07:46.499Z,26.47
2019-04-03T18:10:13.155Z,25.43
2019-04-03T18:12:39.658Z,27.40
2019-04-03T18:15:07.941Z,25.87
2019-04-03T18:17:34.185Z,26.80
2019-04-03T18:20:00.847Z,27.87
2019-04-03T18:22:27.115Z,30.67
2019-04-03T18:24:53.792Z,33.37
2019-04-03T18:27:20.438Z,35.60
2019-04-03T18:29:58.830Z,29.70
2019-04-03T18:32:25.111Z,27.97
2019-04-03T18:35:06.898Z,28.43
2019-04-03T18:37:32.666Z,28.07
2019-04-03T18:40:00.192Z,29.60
2019-04-03T18:42:26.441Z,31.43
2019-04-03T18:44:52.723Z,35.60
2019-04-03T18:47:18.970Z,27.97
2019-04-03T18:49:45.261Z,28.93
2019-04-03T18:52:29.593Z,32.03
2019-04-03T18:54:55.874Z,31.20
2019-04-03T18:57:22.154Z,32.77
2019-04-03T18:59:48.396Z,27.63
2019-04-03T19:02:14.645Z,31.73
2019-04-03T19:04:42.981Z,31.33
2019-04-03T19:07:09.233Z,42.83
2019-04-03T19:09:35.531Z,40.33
2019-04-03T19:12:08.295Z,35.63
2019-04-03T19:14:32.079Z,35.60
2019-04-03T19:17:01.216Z,30.60
2019-04-03T19:19:27.484Z,30.50
2019-04-03T19:21:54.621Z,31.03
2019-04-03T19:24:24.440Z,27.83
2019-04-03T19:26:49.632Z,28.33
2019-04-03T19:29:21.958Z,27.27
2019-04-03T19:31:48.165Z,25.23
2019-04-03T19:34:19.497Z,27.43
2019-04-03T19:36:43.135Z,31.53
2019-04-03T19:39:09.614Z,25.77
2019-04-03T19:41:35.958Z,26.57
2019-04-03T19:44:02.200Z,31.17
2019-04-03T19:46:28.515Z,29.63
2019-04-03T19:48:56.491Z,25.93
2019-04-03T19:51:22.980Z,25.83
2019-04-03T19:53:58.717Z,23.73
2019-04-03T19:56:17.456Z,27.57
2019-04-03T19:58:43.731Z,29.37
2019-04-03T20:01:10.301Z,26.67
2019-04-03T20:03:36.576Z,40.80
2019-04-03T20:06:02.849Z,28.83
2019-04-03T20:08:30.024Z,30.90
2019-04-03T20:10:56.984Z,30.27
2019-04-03T20:13:23.236Z,31.37
2019-04-03T20:15:49.481Z,27.77
2019-04-03T20:18:15.766Z,31.37
2019-04-03T20:20:42.006Z,29.30
2019-04-03T20:23:10.462Z,30.40
2019-04-03T20:25:36.423Z,27.80
2019-04-03T20:28:03.086Z,30.97
2019-04-03T20:30:30.892Z,31.40
2019-04-03T20:32:57.567Z,32.07
2019-04-03T20:35:27.869Z,30.07
2019-04-03T20:37:56.784Z,35.37
2019-04-03T20:40:22.259Z,29.13
2019-04-03T20:42:48.641Z,34.53
2019-04-03T20:45:14.940Z,35.50
2019-04-03T20:47:41.175Z,36.70
2019-04-03T20:50:08.360Z,50.97
2019-04-03T20:52:34.648Z,35.73
2019-04-03T20:55:00.922Z,34.73
2019-04-03T20:57:27.189Z,34.17
2019-04-03T21:00:01.831Z,33.43
2019-04-03T21:02:21.742Z,34.07
2019-04-03T21:04:48.018Z,31.47
2019-04-03T21:07:14.260Z,30.77
2019-04-03T21:09:40.538Z,27.83
2019-04-03T21:12:06.808Z,27.37
2019-04-03T21:14:33.167Z,32.97
2019-04-03T21:16:59.433Z,23.07
2019-04-03T21:19:25.681Z,29.03
2019-04-03T21:21:51.938Z,32.23
2019-04-03T21:24:18.178Z,30.33
2019-04-03T21:26:44.505Z,29.50
2019-04-03T21:29:11.837Z,31.90
2019-04-03T21:31:38.177Z,32.97
2019-04-03T21:34:04.688Z,27.90
2019-04-03T21:36:31.205Z,27.57
2019-04-03T21:38:57.819Z,32.23
2019-04-03T21:41:24.052Z,27.33
2019-04-03T21:43:50.295Z,27.63
2019-04-03T21:46:16.571Z,30.07
2019-04-03T21:48:44.613Z,32.73
2019-04-03T21:51:11.113Z,29.40
2019-04-03T21:53:37.376Z,32.27
2019-04-03T21:56:03.624Z,31.77
2019-04-03T21:58:29.895Z,32.20
2019-04-03T22:01:16.067Z,28.00
2019-04-03T22:03:42.319Z,31.90
2019-04-03T22:06:08.864Z,26.63
2019-04-03T22:08:35.137Z,28.80
2019-04-03T22:11:04.643Z,26.30
2019-04-03T22:13:30.606Z,29.10
2019-04-03T22:15:56.855Z,28.20
2019-04-03T22:18:23.786Z,35.87
2019-04-03T22:20:50.587Z,31.53
2019-04-03T22:23:17.607Z,27.20
2019-04-03T22:25:43.831Z,25.00
2019-04-03T22:28:10.091Z,27.67
2019-04-03T22:30:40.537Z,28.67
2019-04-03T22:33:06.818Z,27.40
2019-04-03T22:35:33.059Z,29.17
2019-04-03T22:37:59.362Z,26.77
2019-04-03T22:40:33.815Z,29.93
2019-04-03T22:43:00.205Z,27.27
2019-04-03T22:45:26.479Z,27.07
2019-04-03T22:47:54.284Z,28.40
2019-04-03T22:50:20.928Z,27.63
2019-04-03T22:52:49.281Z,32.57
2019-04-03T22:55:15.579Z,28.50
2019-04-03T22:57:41.858Z,28.23
2019-04-03T23:00:08.275Z,33.10
2019-04-03T23:02:34.535Z,28.00
2019-04-03T23:05:00.770Z,29.77
2019-04-03T23:07:27.046Z,24.13
2019-04-03T23:09:53.317Z,30.73
2019-04-03T23:12:19.682Z,28.17
2019-04-03T23:14:46.015Z,26.90
2019-04-03T23:17:14.015Z,23.87
2019-04-03T23:19:40.720Z,33.20
2019-04-03T23:22:06.968Z,30.47
2019-04-03T23:24:33.253Z,27.93
2019-04-03T23:27:02.406Z,24.17
2019-04-03T23:29:28.288Z,27.57
2019-04-03T23:31:54.579Z,30.70
2019-04-03T23:34:20.823Z,31.00
2019-04-03T23:36:47.090Z,31.53
2019-04-03T23:39:13.364Z,27.93
2019-04-03T23:41:40.411Z,28.20
2019-04-03T23:44:06.669Z,25.93
2019-04-03T23:46:32.942Z,29.70
2019-04-03T23:48:59.183Z,28.07
2019-04-03T23:51:27.342Z,25.37
2019-04-03T23:53:53.602Z,34.30
2019-04-03T23:56:19.895Z,24.37
2019-04-03T23:58:46.388Z,29.03
